Time;durP1;ratioP1;P1;durP2;ratioP2;P2;SDS_P1;SDS_P2;PMS_P1;PMS_P2;Temp;Humidity;BMP_temperature;BMP_pressure;BME280_temperature;BME280_humidity;BME280_pressure;Samples;Min_cycle;Max_cycle;Signal;HPM_P1;HPM_P2
2021/07/05 00:01:28;;;;;;;9.02;4.95;;;;;;;;;;5019890;28;20075;-54
2021/07/05 00:03:55;;;;;;;10.27;5.00;;;;;;;;;;5013339;28;20045;-56
2021/07/05 00:06:21;;;;;;;8.65;4.90;;;;;;;;;;5026564;28;20039;-56
2021/07/05 00:08:48;;;;;;;12.05;4.45;;;;;;;;;;5023418;28;20127;-57
2021/07/05 00:11:16;;;;;;;10.82;4.70;;;;;;;;;;5015595;28;20065;-55
2021/07/05 00:13:42;;;;;;;12.52;5.07;;;;;;;;;;5039605;28;20068;-57
2021/07/05 00:16:09;;;;;;;12.07;5.55;;;;;;;;;;5028119;28;20029;-55
2021/07/05 00:18:35;;;;;;;9.43;4.45;;;;;;;;;;5041640;28;20125;-57
2021/07/05 00:21:08;;;;;;;11.35;4.15;;;;;;;;;;5037462;28;20030;-55
2021/07/05 00:23:35;;;;;;;7.00;4.32;;;;;;;;;;5013902;28;20037;-53
2021/07/05 00:26:01;;;;;;;10.80;4.63;;;;;;;;;;5004866;28;20061;-55
2021/07/05 00:28:30;;;;;;;11.07;4.60;;;;;;;;;;5005562;28;20171;-55
2021/07/05 00:30:58;;;;;;;;;;;;;;;;;;4986106;28;20062;-55
2021/07/05 00:33:25;;;;;;;;;;;;;;;;;;5019941;28;19921;-55
2021/07/05 00:35:54;;;;;;;9.75;4.05;;;;;;;;;;5024292;28;19924;-56
2021/07/05 00:38:20;;;;;;;9.05;4.45;;;;;;;;;;5040644;28;20049;-56
2021/07/05 00:40:47;;;;;;;7.95;4.65;;;;;;;;;;5019858;28;20111;-56
2021/07/05 00:43:13;;;;;;;10.93;4.30;;;;;;;;;;5005643;28;20037;-56
2021/07/05 00:45:42;;;;;;;8.70;4.65;;;;;;;;;;5003438;28;20042;-57
2021/07/05 00:48:08;;;;;;;9.30;4.18;;;;;;;;;;5024229;28;20038;-56
2021/07/05 00:50:35;;;;;;;7.60;4.18;;;;;;;;;;5031692;28;20049;-56
2021/07/05 00:53:02;;;;;;;8.63;5.30;;;;;;;;;;5045274;28;20048;-56
2021/07/05 00:55:32;;;;;;;9.05;4.95;;;;;;;;;;5037964;28;20056;-56
2021/07/05 00:57:58;;;;;;;7.82;4.50;;;;;;;;;;5024522;28;20065;-56
2021/07/05 01:00:25;;;;;;;11.20;4.85;;;;;;;;;;5037578;28;20053;-54
2021/07/05 01:02:54;;;;;;;6.82;4.13;;;;;;;;;;5041825;28;20106;-56
2021/07/05 01:05:21;;;;;;;8.32;4.68;;;;;;;;;;5031818;28;20046;-56
2021/07/05 01:07:49;;;;;;;7.93;4.78;;;;;;;;;;5004695;28;20107;-56
2021/07/05 01:10:16;;;;;;;9.10;4.65;;;;;;;;;;5029952;28;20045;-56
2021/07/05 01:12:43;;;;;;;13.98;4.30;;;;;;;;;;5042590;28;20053;-56
2021/07/05 01:15:10;;;;;;;6.60;4.30;;;;;;;;;;5036946;28;20172;-54
2021/07/05 01:17:37;;;;;;;7.65;4.05;;;;;;;;;;5005573;28;20061;-56
2021/07/05 01:20:06;;;;;;;7.65;4.43;;;;;;;;;;5005537;28;20030;-56
2021/07/05 01:22:34;;;;;;;6.25;3.90;;;;;;;;;;5005507;28;20104;-55
2021/07/05 01:25:01;;;;;;;10.48;4.57;;;;;;;;;;5005608;28;20095;-56
2021/07/05 01:27:27;;;;;;;7.57;4.18;;;;;;;;;;5037361;28;20048;-56
2021/07/05 01:29:54;;;;;;;7.85;4.03;;;;;;;;;;5041469;28;20040;-56
2021/07/05 01:32:20;;;;;;;7.80;4.10;;;;;;;;;;5033361;28;20057;-56
2021/07/05 01:34:48;;;;;;;9.15;3.72;;;;;;;;;;5021516;28;20053;-55
2021/07/05 01:37:15;;;;;;;6.13;3.53;;;;;;;;;;5017858;28;20052;-56
2021/07/05 01:39:43;;;;;;;9.38;4.20;;;;;;;;;;5021949;28;20061;-54
2021/07/05 01:42:11;;;;;;;7.93;4.03;;;;;;;;;;5012996;28;20067;-57
2021/07/05 01:44:37;;;;;;;8.00;3.83;;;;;;;;;;5024570;28;20037;-55
2021/07/05 01:47:04;;;;;;;9.63;4.05;;;;;;;;;;5021371;28;20041;-55
2021/07/05 01:49:31;;;;;;;8.98;4.07;;;;;;;;;;5041589;28;20033;-56
2021/07/05 01:51:59;;;;;;;8.25;4.40;;;;;;;;;;5038904;28;20045;-55
2021/07/05 01:54:26;;;;;;;6.18;3.75;;;;;;;;;;5042898;28;20037;-54
2021/07/05 01:56:54;;;;;;;7.72;4.38;;;;;;;;;;5036790;28;20036;-56
2021/07/05 01:59:20;;;;;;;8.40;4.00;;;;;;;;;;5023505;28;20047;-56
2021/07/05 02:01:47;;;;;;;9.75;4.07;;;;;;;;;;5002912;28;20046;-56
2021/07/05 02:04:13;;;;;;;5.85;3.60;;;;;;;;;;5022779;28;20041;-57
2021/07/05 02:06:40;;;;;;;10.80;4.20;;;;;;;;;;5022648;28;20048;-56
2021/07/05 02:09:08;;;;;;;13.35;4.22;;;;;;;;;;5018052;28;20041;-56
2021/07/05 02:11:36;;;;;;;7.10;3.75;;;;;;;;;;5036901;28;20296;-55
2021/07/05 02:14:04;;;;;;;6.75;3.67;;;;;;;;;;5022874;28;20042;-54
2021/07/05 02:16:39;;;;;;;6.55;3.50;;;;;;;;;;5044779;28;20041;-56
2021/07/05 02:19:06;;;;;;;6.85;3.88;;;;;;;;;;5031277;28;20037;-55
2021/07/05 02:21:32;;;;;;;7.95;3.30;;;;;;;;;;5043563;28;20093;-56
2021/07/05 02:23:59;;;;;;;9.30;3.33;;;;;;;;;;5029055;28;20049;-55
2021/07/05 02:26:27;;;;;;;6.50;3.25;;;;;;;;;;5023814;28;20127;-55
2021/07/05 02:28:54;;;;;;;8.15;3.25;;;;;;;;;;5005178;28;20041;-56
2021/07/05 02:31:23;;;;;;;7.50;3.08;;;;;;;;;;5025001;28;20042;-54
2021/07/05 02:33:58;;;;;;;7.35;3.42;;;;;;;;;;5027613;28;20053;-55
2021/07/05 02:36:24;;;;;;;9.65;3.50;;;;;;;;;;5039686;28;20042;-55
2021/07/05 02:38:51;;;;;;;6.55;3.15;;;;;;;;;;5003814;28;20056;-56
2021/07/05 02:41:18;;;;;;;6.78;3.42;;;;;;;;;;5007773;28;20037;-56
2021/07/05 02:43:44;;;;;;;8.18;3.40;;;;;;;;;;5003824;28;20057;-56
2021/07/05 02:46:11;;;;;;;6.03;3.08;;;;;;;;;;5023397;28;20057;-55
2021/07/05 02:48:40;;;;;;;5.70;3.38;;;;;;;;;;5001801;28;20119;-55
2021/07/05 02:51:08;;;;;;;9.60;3.28;;;;;;;;;;5026795;28;20037;-56
2021/07/05 02:53:35;;;;;;;7.53;3.28;;;;;;;;;;5042519;28;20099;-55
2021/07/05 02:56:02;;;;;;;6.63;3.10;;;;;;;;;;5019384;28;20096;-56
2021/07/05 02:58:29;;;;;;;5.90;2.70;;;;;;;;;;5025246;28;20128;-56
2021/07/05 03:00:57;;;;;;;5.18;2.80;;;;;;;;;;5020138;28;20057;-56
2021/07/05 03:03:24;;;;;;;6.18;3.17;;;;;;;;;;5024773;28;20045;-56
2021/07/05 03:05:52;;;;;;;6.13;3.28;;;;;;;;;;5033104;28;20114;-56
2021/07/05 03:08:18;;;;;;;8.10;3.20;;;;;;;;;;5026205;28;20037;-56
2021/07/05 03:10:47;;;;;;;6.20;3.25;;;;;;;;;;5022319;28;20041;-55
2021/07/05 03:13:14;;;;;;;8.13;4.00;;;;;;;;;;5027356;28;20041;-56
2021/07/05 03:15:41;;;;;;;7.95;3.65;;;;;;;;;;5029844;28;20060;-55
2021/07/05 03:18:08;;;;;;;7.10;3.20;;;;;;;;;;5045276;28;20048;-56
2021/07/05 03:20:36;;;;;;;9.32;3.00;;;;;;;;;;5023310;28;20049;-56
2021/07/05 03:23:05;;;;;;;11.20;2.53;;;;;;;;;;5044192;28;20037;-56
2021/07/05 03:25:32;;;;;;;8.05;2.58;;;;;;;;;;5037174;28;20049;-56
2021/07/05 03:27:59;;;;;;;10.05;2.50;;;;;;;;;;5024940;28;20095;-54
2021/07/05 03:30:27;;;;;;;7.38;1.48;;;;;;;;;;5006957;28;20034;-54
2021/07/05 03:32:54;;;;;;;3.78;1.23;;;;;;;;;;5028244;28;20053;-54
2021/07/05 03:35:21;;;;;;;4.60;1.25;;;;;;;;;;5045756;28;20156;-54
2021/07/05 03:37:48;;;;;;;3.80;1.00;;;;;;;;;;5026775;28;20041;-55
2021/07/05 03:40:17;;;;;;;6.22;1.20;;;;;;;;;;5026725;28;20038;-56
2021/07/05 03:42:43;;;;;;;;;;;;;;;;;;5023844;28;20044;-55
2021/07/05 03:45:10;;;;;;;9.65;1.17;;;;;;;;;;5025186;28;19957;-54
2021/07/05 03:47:37;;;;;;;3.60;1.23;;;;;;;;;;5040395;28;20052;-55
2021/07/05 03:50:04;;;;;;;5.70;1.40;;;;;;;;;;5044010;28;20038;-53
2021/07/05 03:52:31;;;;;;;2.95;1.15;;;;;;;;;;5013867;28;20049;-55
2021/07/05 03:54:58;;;;;;;5.57;1.50;;;;;;;;;;5026113;28;20104;-54
2021/07/05 03:57:26;;;;;;;11.20;1.60;;;;;;;;;;5011500;28;20053;-55
2021/07/05 03:59:54;;;;;;;5.53;1.58;;;;;;;;;;5024212;28;20069;-56
2021/07/05 04:02:21;;;;;;;10.00;1.67;;;;;;;;;;5019965;28;20037;-54
2021/07/05 04:04:48;;;;;;;6.90;1.30;;;;;;;;;;5042150;28;20047;-56
2021/07/05 04:07:15;;;;;;;7.40;1.58;;;;;;;;;;5039727;28;20095;-57
2021/07/05 04:09:41;;;;;;;7.78;1.52;;;;;;;;;;5042191;28;20045;-56
2021/07/05 04:12:10;;;;;;;4.07;1.38;;;;;;;;;;5034425;28;20041;-56
2021/07/05 04:14:38;;;;;;;4.18;1.35;;;;;;;;;;5022270;28;20029;-57
2021/07/05 04:17:05;;;;;;;4.70;1.48;;;;;;;;;;5019177;28;20045;-54
2021/07/05 04:19:31;;;;;;;6.55;1.50;;;;;;;;;;5041326;28;20042;-55
2021/07/05 04:21:58;;;;;;;4.43;1.45;;;;;;;;;;5041579;28;20041;-57
2021/07/05 04:24:24;;;;;;;5.20;1.70;;;;;;;;;;5039920;28;20180;-57
2021/07/05 04:26:52;;;;;;;3.67;1.50;;;;;;;;;;5043063;28;20065;-57
2021/07/05 04:29:19;;;;;;;2.88;1.30;;;;;;;;;;5040666;28;20048;-57
2021/07/05 04:31:47;;;;;;;8.10;1.50;;;;;;;;;;5033251;28;20029;-57
2021/07/05 04:34:14;;;;;;;;;;;;;;;;;;5022355;28;20056;-57
2021/07/05 04:36:40;;;;;;;3.28;1.40;;;;;;;;;;5017286;28;19917;-57
2021/07/05 04:39:07;;;;;;;5.00;1.30;;;;;;;;;;5012164;28;20070;-57
2021/07/05 04:41:36;;;;;;;4.72;1.55;;;;;;;;;;5023531;28;20131;-57
2021/07/05 04:44:04;;;;;;;4.75;1.55;;;;;;;;;;5025668;28;20041;-57
2021/07/05 04:46:30;;;;;;;7.15;2.28;;;;;;;;;;5038526;28;20053;-57
2021/07/05 04:48:58;;;;;;;7.32;1.83;;;;;;;;;;5022275;28;20115;-57
2021/07/05 04:51:25;;;;;;;5.87;1.50;;;;;;;;;;5042956;28;20052;-56
2021/07/05 04:53:52;;;;;;;4.82;1.70;;;;;;;;;;5040362;28;20107;-58
2021/07/05 04:56:19;;;;;;;5.13;1.73;;;;;;;;;;5043988;28;20033;-57
2021/07/05 04:58:45;;;;;;;9.30;2.00;;;;;;;;;;5037613;28;20041;-57
2021/07/05 05:01:12;;;;;;;5.13;1.70;;;;;;;;;;5043821;28;20041;-57
2021/07/05 05:03:39;;;;;;;3.30;1.60;;;;;;;;;;5022957;28;20131;-57
2021/07/05 05:06:07;;;;;;;7.35;1.90;;;;;;;;;;5018521;28;20046;-57
2021/07/05 05:08:34;;;;;;;5.93;2.03;;;;;;;;;;5012716;28;20030;-55
2021/07/05 05:11:14;;;;;;;4.63;1.98;;;;;;;;;;5017892;28;20040;-58
2021/07/05 05:13:41;;;;;;;6.05;2.40;;;;;;;;;;5022105;28;20042;-57
2021/07/05 05:16:07;;;;;;;8.60;1.67;;;;;;;;;;5015081;28;20045;-57
2021/07/05 05:18:33;;;;;;;5.65;1.83;;;;;;;;;;5021635;28;20048;-57
2021/07/05 05:21:00;;;;;;;8.23;1.88;;;;;;;;;;5032065;28;20041;-58
2021/07/05 05:23:28;;;;;;;4.00;1.73;;;;;;;;;;5021721;28;20041;-54
2021/07/05 05:25:54;;;;;;;4.60;1.70;;;;;;;;;;5017031;28;20042;-57
2021/07/05 05:28:21;;;;;;;4.32;1.77;;;;;;;;;;5002698;28;20061;-58
2021/07/05 05:30:48;;;;;;;6.05;2.03;;;;;;;;;;5015538;28;20229;-57
2021/07/05 05:33:15;;;;;;;5.55;2.08;;;;;;;;;;5020135;28;20049;-58
2021/07/05 05:35:44;;;;;;;5.45;2.05;;;;;;;;;;5017146;28;20053;-57
2021/07/05 05:38:10;;;;;;;5.28;1.85;;;;;;;;;;5019695;28;20124;-57
2021/07/05 05:40:39;;;;;;;7.32;2.00;;;;;;;;;;5032645;28;20076;-58
2021/07/05 05:43:08;;;;;;;5.25;2.15;;;;;;;;;;5037185;28;20034;-57
2021/07/05 05:45:34;;;;;;;4.75;1.88;;;;;;;;;;5031889;28;20049;-57
2021/07/05 05:48:01;;;;;;;10.57;3.60;;;;;;;;;;5018686;28;20038;-57
2021/07/05 05:50:28;;;;;;;9.63;2.80;;;;;;;;;;5020785;28;20138;-57
2021/07/05 05:52:54;;;;;;;6.05;2.20;;;;;;;;;;5014836;28;20046;-57
2021/07/05 05:55:20;;;;;;;6.40;2.30;;;;;;;;;;5037380;28;20092;-57
2021/07/05 05:57:49;;;;;;;7.75;2.13;;;;;;;;;;5015680;28;20062;-57
2021/07/05 06:00:17;;;;;;;;;;;;;;;;;;5021342;28;20046;-57
2021/07/05 06:02:44;;;;;;;9.10;2.33;;;;;;;;;;5016305;28;19949;-57
2021/07/05 06:05:10;;;;;;;9.15;3.28;;;;;;;;;;5041148;28;20044;-57
2021/07/05 06:07:37;;;;;;;8.60;2.60;;;;;;;;;;5024788;28;20048;-58
2021/07/05 06:10:04;;;;;;;5.88;2.60;;;;;;;;;;5024605;28;20123;-58
2021/07/05 06:12:33;;;;;;;7.70;2.88;;;;;;;;;;5022045;28;20172;-57
2021/07/05 06:15:01;;;;;;;6.78;2.50;;;;;;;;;;5040561;28;20037;-58
2021/07/05 06:17:28;;;;;;;8.57;2.50;;;;;;;;;;5018609;28;20047;-57
2021/07/05 06:19:54;;;;;;;11.80;3.10;;;;;;;;;;5024817;28;20037;-58
2021/07/05 06:22:28;;;;;;;8.20;3.15;;;;;;;;;;5016230;28;20045;-57
2021/07/05 06:24:55;;;;;;;8.90;2.90;;;;;;;;;;5021814;28;20046;-58
2021/07/05 06:27:21;;;;;;;6.82;2.58;;;;;;;;;;5004281;28;20045;-57
2021/07/05 06:29:48;;;;;;;9.00;3.30;;;;;;;;;;5041036;28;20041;-58
2021/07/05 06:32:16;;;;;;;9.90;2.75;;;;;;;;;;5039164;28;20142;-57
2021/07/05 06:34:43;;;;;;;8.77;3.05;;;;;;;;;;5040143;28;20041;-57
2021/07/05 06:37:12;;;;;;;8.35;3.22;;;;;;;;;;5023989;28;20140;-57
2021/07/05 06:39:38;;;;;;;9.50;2.78;;;;;;;;;;5003053;28;20057;-59
2021/07/05 06:42:08;;;;;;;9.52;2.97;;;;;;;;;;5023853;28;20038;-58
2021/07/05 06:44:35;;;;;;;10.80;3.05;;;;;;;;;;5034807;28;20033;-57
2021/07/05 06:47:02;;;;;;;8.68;2.72;;;;;;;;;;5025176;28;20042;-57
2021/07/05 06:49:30;;;;;;;10.63;2.88;;;;;;;;;;5027701;28;20041;-57
2021/07/05 06:51:58;;;;;;;9.52;3.05;;;;;;;;;;5020311;28;20038;-58
2021/07/05 06:54:24;;;;;;;10.10;2.78;;;;;;;;;;5019695;28;20116;-57
2021/07/05 06:56:51;;;;;;;7.97;3.15;;;;;;;;;;5004733;28;20042;-57
2021/07/05 06:59:18;;;;;;;7.88;2.72;;;;;;;;;;5024614;28;20029;-57
2021/07/05 07:01:45;;;;;;;10.95;2.95;;;;;;;;;;5043804;28;20095;-57
2021/07/05 07:04:12;;;;;;;12.27;3.10;;;;;;;;;;5038882;28;20091;-57
2021/07/05 07:06:39;;;;;;;11.30;3.47;;;;;;;;;;5041674;28;20278;-58
2021/07/05 07:09:06;;;;;;;20.50;3.57;;;;;;;;;;5039601;28;20053;-58
2021/07/05 07:11:32;;;;;;;8.43;3.50;;;;;;;;;;5025235;28;20376;-57
2021/07/05 07:13:59;;;;;;;8.88;3.05;;;;;;;;;;5022006;28;20034;-57
2021/07/05 07:16:28;;;;;;;10.15;2.90;;;;;;;;;;4986331;28;20042;-58
2021/07/05 07:19:08;;;;;;;8.55;3.03;;;;;;;;;;5006403;28;20042;-58
2021/07/05 07:21:35;;;;;;;11.13;3.17;;;;;;;;;;5022981;28;20038;-58
2021/07/05 07:24:03;;;;;;;9.00;3.67;;;;;;;;;;5006793;28;20078;-58
2021/07/05 07:26:29;;;;;;;8.73;3.65;;;;;;;;;;5040149;28;20037;-58
2021/07/05 07:28:56;;;;;;;12.15;3.50;;;;;;;;;;5025228;28;20030;-58
2021/07/05 07:31:23;;;;;;;8.13;3.97;;;;;;;;;;5008661;28;20038;-58
2021/07/05 07:33:50;;;;;;;12.20;4.15;;;;;;;;;;5002067;28;20038;-58
2021/07/05 07:36:16;;;;;;;16.42;3.53;;;;;;;;;;5024702;28;20045;-58
2021/07/05 07:38:45;;;;;;;8.30;3.35;;;;;;;;;;5040705;28;20053;-58
2021/07/05 07:41:16;;;;;;;8.65;3.60;;;;;;;;;;5010423;28;20053;-56
2021/07/05 07:43:42;;;;;;;13.63;3.78;;;;;;;;;;5023753;28;20056;-58
2021/07/05 07:46:08;;;;;;;8.48;3.70;;;;;;;;;;5029194;28;20107;-57
2021/07/05 07:48:35;;;;;;;11.13;3.85;;;;;;;;;;5027848;28;20167;-58
2021/07/05 07:51:01;;;;;;;16.08;3.75;;;;;;;;;;5038433;28;20041;-58
2021/07/05 07:53:28;;;;;;;10.32;3.70;;;;;;;;;;5043012;28;20049;-58
2021/07/05 07:55:54;;;;;;;10.13;3.50;;;;;;;;;;5036516;28;20050;-58
2021/07/05 07:58:22;;;;;;;10.60;3.58;;;;;;;;;;5006628;28;20037;-58
2021/07/05 08:00:50;;;;;;;9.45;3.45;;;;;;;;;;5019553;28;20057;-58
2021/07/05 08:03:17;;;;;;;14.90;3.73;;;;;;;;;;5006303;28;20049;-58
2021/07/05 08:05:43;;;;;;;11.10;4.07;;;;;;;;;;5012206;28;20315;-58
2021/07/05 08:08:10;;;;;;;15.00;3.85;;;;;;;;;;5022055;28;20045;-58
2021/07/05 08:10:38;;;;;;;12.75;3.47;;;;;;;;;;5025299;28;20049;-58
2021/07/05 08:13:04;;;;;;;9.82;3.40;;;;;;;;;;5022934;28;20076;-58
2021/07/05 08:15:32;;;;;;;12.43;3.90;;;;;;;;;;5026978;28;20038;-58
2021/07/05 08:17:59;;;;;;;12.07;3.83;;;;;;;;;;5007231;28;20127;-58
2021/07/05 08:20:26;;;;;;;8.85;3.58;;;;;;;;;;5023334;28;20038;-58
2021/07/05 08:22:54;;;;;;;15.15;4.10;;;;;;;;;;5031763;28;20041;-58
2021/07/05 08:25:20;;;;;;;;;;;;;;;;;;5029019;28;20053;-58
2021/07/05 08:27:47;;;;;;;10.77;3.70;;;;;;;;;;5039399;28;19932;-58
2021/07/05 08:30:14;;;;;;;15.75;3.40;;;;;;;;;;5024146;28;20041;-58
2021/07/05 08:32:42;;;;;;;9.75;3.30;;;;;;;;;;5015726;28;20103;-58
2021/07/05 08:35:09;;;;;;;12.50;3.33;;;;;;;;;;5006280;28;20127;-58
2021/07/05 08:37:35;;;;;;;9.80;3.40;;;;;;;;;;5024948;28;20037;-58
2021/07/05 08:40:04;;;;;;;12.80;3.38;;;;;;;;;;5026119;28;20037;-58
2021/07/05 08:42:31;;;;;;;13.13;3.60;;;;;;;;;;5020596;28;20061;-58
2021/07/05 08:44:58;;;;;;;18.85;3.83;;;;;;;;;;5029236;28;20061;-58
2021/07/05 08:47:27;;;;;;;15.02;3.95;;;;;;;;;;5022404;28;20037;-58
2021/07/05 08:49:55;;;;;;;13.07;3.58;;;;;;;;;;5039967;28;20052;-58
2021/07/05 08:52:22;;;;;;;14.33;3.57;;;;;;;;;;5043664;28;20037;-59
2021/07/05 08:54:49;;;;;;;11.52;3.53;;;;;;;;;;5019227;28;20045;-59
2021/07/05 08:57:27;;;;;;;9.60;3.35;;;;;;;;;;5021281;28;20034;-58
2021/07/05 08:59:54;;;;;;;9.10;2.92;;;;;;;;;;4993031;28;20046;-58
2021/07/05 09:02:21;;;;;;;11.70;2.78;;;;;;;;;;5003771;28;20046;-58
2021/07/05 09:04:47;;;;;;;7.47;3.40;;;;;;;;;;5012303;28;20045;-58
2021/07/05 09:07:15;;;;;;;14.05;3.45;;;;;;;;;;5021680;28;20045;-59
2021/07/05 09:09:57;;;;;;;6.55;2.72;;;;;;;;;;5018148;28;20088;-58
2021/07/05 09:12:23;;;;;;;7.28;2.85;;;;;;;;;;5037729;28;20073;-58
2021/07/05 09:15:02;;;;;;;11.55;3.13;;;;;;;;;;5017460;28;20026;-58
2021/07/05 09:17:32;;;;;;;12.18;3.10;;;;;;;;;;5019106;28;20053;-58
2021/07/05 09:19:59;;;;;;;10.57;2.80;;;;;;;;;;5019172;28;20057;-58
2021/07/05 09:22:27;;;;;;;9.85;2.90;;;;;;;;;;5019278;28;20033;-58
2021/07/05 09:24:57;;;;;;;8.73;2.77;;;;;;;;;;5018441;28;20115;-58
2021/07/05 09:27:25;;;;;;;13.35;3.00;;;;;;;;;;5019112;28;20033;-58
2021/07/05 09:29:52;;;;;;;11.80;3.45;;;;;;;;;;5018723;28;20037;-58
2021/07/05 09:32:23;;;;;;;14.35;3.67;;;;;;;;;;5022472;28;20052;-58
2021/07/05 09:34:50;;;;;;;13.57;4.18;;;;;;;;;;5032596;28;20033;-59
2021/07/05 09:37:21;;;;;;;8.85;3.63;;;;;;;;;;5022341;28;20045;-58
2021/07/05 09:40:06;;;;;;;14.88;3.28;;;;;;;;;;5014241;28;20048;-59
2021/07/05 09:42:35;;;;;;;10.82;3.05;;;;;;;;;;5020695;28;20050;-59
2021/07/05 09:45:06;;;;;;;8.70;3.60;;;;;;;;;;5012909;28;20086;-58
2021/07/05 09:47:33;;;;;;;9.85;2.85;;;;;;;;;;5021434;28;20064;-59
2021/07/05 09:50:07;;;;;;;8.85;3.28;;;;;;;;;;5034639;28;20140;-58
2021/07/05 09:52:36;;;;;;;10.35;2.97;;;;;;;;;;5018105;28;20092;-58
2021/07/05 09:55:08;;;;;;;9.10;3.17;;;;;;;;;;5031730;28;20045;-58
2021/07/05 09:57:43;;;;;;;9.25;3.10;;;;;;;;;;5036889;28;20038;-59
2021/07/05 10:00:14;;;;;;;7.57;2.78;;;;;;;;;;5020745;28;20042;-58
2021/07/05 10:02:54;;;;;;;8.50;2.83;;;;;;;;;;5000855;28;20053;-58
2021/07/05 10:05:21;;;;;;;8.27;2.75;;;;;;;;;;5003398;28;20038;-58
2021/07/05 10:07:57;;;;;;;7.35;2.78;;;;;;;;;;5017889;28;20052;-58
2021/07/05 10:10:24;;;;;;;14.75;4.20;;;;;;;;;;5020676;28;20107;-58
2021/07/05 10:12:52;;;;;;;11.05;3.42;;;;;;;;;;5033377;28;20042;-58
2021/07/05 10:15:19;;;;;;;;;;;;;;;;;;5021730;28;20033;-58
2021/07/05 10:17:48;;;;;;;7.00;2.65;;;;;;;;;;5009327;28;19922;-58
2021/07/05 10:20:16;;;;;;;15.00;3.70;;;;;;;;;;5038595;28;20046;-59
2021/07/05 10:22:43;;;;;;;8.17;2.73;;;;;;;;;;5033113;28;20057;-58
2021/07/05 10:25:10;;;;;;;17.83;3.28;;;;;;;;;;5021619;28;20056;-58
2021/07/05 10:27:37;;;;;;;9.13;3.25;;;;;;;;;;5017189;28;20053;-58
2021/07/05 10:30:06;;;;;;;9.07;2.83;;;;;;;;;;5020917;28;20037;-58
2021/07/05 10:32:32;;;;;;;10.93;3.22;;;;;;;;;;5017254;28;20041;-58
2021/07/05 10:34:59;;;;;;;9.27;3.10;;;;;;;;;;5020881;28;20144;-59
2021/07/05 10:37:30;;;;;;;12.07;3.05;;;;;;;;;;5014880;28;20095;-59
2021/07/05 10:39:57;;;;;;;9.90;2.78;;;;;;;;;;5025236;28;20045;-58
2021/07/05 10:42:32;;;;;;;11.30;2.60;;;;;;;;;;5038948;28;20073;-58
2021/07/05 10:45:00;;;;;;;11.98;2.80;;;;;;;;;;5042151;28;20044;-59
2021/07/05 10:47:48;;;;;;;10.35;2.38;;;;;;;;;;5018684;28;20047;-59
2021/07/05 10:50:33;;;;;;;7.03;2.47;;;;;;;;;;5003360;28;20038;-58
2021/07/05 10:53:00;;;;;;;9.73;2.50;;;;;;;;;;4990297;28;20088;-58
2021/07/05 10:55:36;;;;;;;9.63;2.20;;;;;;;;;;5022615;28;20033;-58
2021/07/05 10:58:04;;;;;;;9.20;2.25;;;;;;;;;;5017826;28;20105;-60
2021/07/05 11:00:40;;;;;;;8.85;1.95;;;;;;;;;;4994165;28;20042;-59
2021/07/05 11:03:08;;;;;;;7.90;2.30;;;;;;;;;;5002671;28;20046;-58
2021/07/05 11:05:41;;;;;;;11.98;1.92;;;;;;;;;;5043155;28;20060;-59
2021/07/05 11:08:21;;;;;;;6.43;2.33;;;;;;;;;;5039434;28;20061;-59
2021/07/05 11:10:48;;;;;;;8.85;1.98;;;;;;;;;;5008871;28;20029;-59
2021/07/05 11:13:17;;;;;;;5.30;1.60;;;;;;;;;;5004887;28;20049;-59
2021/07/05 11:15:52;;;;;;;4.97;1.75;;;;;;;;;;5036321;28;20049;-59
2021/07/05 11:18:37;;;;;;;5.18;1.80;;;;;;;;;;5025123;28;20061;-58
2021/07/05 11:21:06;;;;;;;8.82;2.00;;;;;;;;;;5021509;28;20115;-58
2021/07/05 11:23:47;;;;;;;6.47;1.50;;;;;;;;;;5020102;28;20060;-59
2021/07/05 11:26:18;;;;;;;6.70;1.65;;;;;;;;;;5002166;28;20034;-59
2021/07/05 11:28:44;;;;;;;6.15;2.10;;;;;;;;;;5002539;28;20030;-58
2021/07/05 11:31:19;;;;;;;5.25;1.90;;;;;;;;;;5001817;28;20062;-59
2021/07/05 11:33:45;;;;;;;5.63;2.35;;;;;;;;;;5004673;28;20042;-59
2021/07/05 11:36:20;;;;;;;6.70;2.53;;;;;;;;;;5019563;28;20054;-58
2021/07/05 11:38:58;;;;;;;5.13;2.60;;;;;;;;;;5024076;28;20061;-59
2021/07/05 11:41:28;;;;;;;8.30;2.83;;;;;;;;;;5020449;28;20061;-59
2021/07/05 11:43:57;;;;;;;5.18;1.95;;;;;;;;;;5025270;28;20303;-59
2021/07/05 11:46:42;;;;;;;8.52;2.65;;;;;;;;;;5019737;28;20049;-59
2021/07/05 11:49:09;;;;;;;7.22;2.47;;;;;;;;;;5024470;28;20038;-59
2021/07/05 11:51:39;;;;;;;8.50;2.50;;;;;;;;;;5002249;28;20038;-59
2021/07/05 11:54:07;;;;;;;5.38;2.38;;;;;;;;;;5003915;28;20046;-58
2021/07/05 11:56:35;;;;;;;6.63;1.90;;;;;;;;;;5010623;28;20049;-58
2021/07/05 11:59:02;;;;;;;;;;;;;;;;;;5004726;28;20104;-59
2021/07/05 12:01:29;;;;;;;4.93;2.10;;;;;;;;;;5010114;28;19936;-59
2021/07/05 12:03:59;;;;;;;8.60;2.00;;;;;;;;;;5022368;28;20164;-58
2021/07/05 12:06:26;;;;;;;7.22;2.38;;;;;;;;;;5001116;28;20078;-58
2021/07/05 12:08:55;;;;;;;5.85;2.13;;;;;;;;;;5003646;28;20074;-59
2021/07/05 12:11:35;;;;;;;8.63;2.25;;;;;;;;;;5008163;28;20045;-59
2021/07/05 12:14:09;;;;;;;4.68;2.03;;;;;;;;;;5038393;28;20045;-59
2021/07/05 12:16:37;;;;;;;6.95;2.25;;;;;;;;;;5033872;28;20053;-58
2021/07/05 12:19:04;;;;;;;6.78;2.17;;;;;;;;;;5021108;28;20173;-58
2021/07/05 12:21:36;;;;;;;5.13;1.90;;;;;;;;;;5017208;28;20069;-58
2021/07/05 12:24:11;;;;;;;5.50;2.38;;;;;;;;;;5012237;28;20046;-58
2021/07/05 12:26:42;;;;;;;7.10;1.80;;;;;;;;;;5013982;28;20067;-58
2021/07/05 12:29:11;;;;;;;5.68;2.17;;;;;;;;;;5002245;28;20143;-59
2021/07/05 12:31:51;;;;;;;5.65;1.73;;;;;;;;;;4999472;28;20056;-58
2021/07/05 12:34:34;;;;;;;7.10;1.98;;;;;;;;;;5002434;28;20034;-58
2021/07/05 12:37:00;;;;;;;2.50;1.30;;;;;;;;;;5002071;28;20042;-58
2021/07/05 12:39:28;;;;;;;5.72;1.65;;;;;;;;;;5022217;28;20066;-58
2021/07/05 12:41:56;;;;;;;3.28;1.40;;;;;;;;;;5015721;28;20042;-59
2021/07/05 12:44:22;;;;;;;3.60;1.05;;;;;;;;;;5002863;28;20046;-59
2021/07/05 12:46:49;;;;;;;4.55;1.65;;;;;;;;;;5000903;28;20030;-58
2021/07/05 12:49:16;;;;;;;3.67;1.38;;;;;;;;;;5022044;28;20052;-59
2021/07/05 12:51:43;;;;;;;3.25;1.30;;;;;;;;;;5021871;28;20139;-58
2021/07/05 12:54:17;;;;;;;7.20;1.30;;;;;;;;;;5018222;28;20068;-58
2021/07/05 12:56:44;;;;;;;3.42;1.20;;;;;;;;;;5021883;28;20056;-58
2021/07/05 12:59:18;;;;;;;4.35;1.52;;;;;;;;;;5034254;28;20127;-59
2021/07/05 13:01:46;;;;;;;7.35;1.27;;;;;;;;;;5021702;28;20037;-58
2021/07/05 13:04:13;;;;;;;7.95;1.40;;;;;;;;;;5018729;28;20037;-59
2021/07/05 13:06:52;;;;;;;3.50;1.30;;;;;;;;;;5020904;28;20041;-59
2021/07/05 13:09:21;;;;;;;;;;;;;;;;;;5018629;28;20327;-59
2021/07/05 13:11:50;;;;;;;5.25;1.60;;;;;;;;;;5007959;28;19921;-58
2021/07/05 13:14:18;;;;;;;4.40;1.30;;;;;;;;;;5012215;28;20062;-59
2021/07/05 13:16:46;;;;;;;2.97;1.25;;;;;;;;;;5023701;28;20038;-59
2021/07/05 13:19:14;;;;;;;2.53;1.17;;;;;;;;;;5020718;28;20038;-59
2021/07/05 13:22:12;;;;;;;2.08;1.10;;;;;;;;;;5038847;28;20057;-59
2021/07/05 13:24:42;;;;;;;6.18;1.08;;;;;;;;;;5035529;28;20041;-59
2021/07/05 13:27:18;;;;;;;0.77;0.70;;;;;;;;;;5023772;28;20135;-59
2021/07/05 13:29:45;;;;;;;2.13;1.00;;;;;;;;;;5007085;28;20041;-59
2021/07/05 13:32:16;;;;;;;4.20;1.35;;;;;;;;;;5002109;28;20053;-59
2021/07/05 13:34:44;;;;;;;1.92;0.85;;;;;;;;;;5000598;28;20131;-59
2021/07/05 13:37:11;;;;;;;3.42;1.00;;;;;;;;;;5000314;28;20045;-59
2021/07/05 13:39:39;;;;;;;6.90;1.00;;;;;;;;;;4999812;28;20061;-59
2021/07/05 13:42:07;;;;;;;1.30;0.80;;;;;;;;;;5001508;28;20037;-59
2021/07/05 13:44:35;;;;;;;2.43;0.93;;;;;;;;;;4999936;28;20127;-59
2021/07/05 13:47:11;;;;;;;2.53;0.80;;;;;;;;;;5001115;28;20041;-58
2021/07/05 13:49:38;;;;;;;3.25;0.90;;;;;;;;;;5001941;28;20061;-59
2021/07/05 13:52:04;;;;;;;3.15;0.98;;;;;;;;;;5038534;28;20045;-59
2021/07/05 13:54:31;;;;;;;2.55;1.00;;;;;;;;;;5032243;28;20078;-59
2021/07/05 13:57:05;;;;;;;2.55;0.88;;;;;;;;;;5001122;28;20153;-59
2021/07/05 13:59:31;;;;;;;2.45;0.88;;;;;;;;;;5001246;28;20144;-59
2021/07/05 14:02:00;;;;;;;3.75;1.17;;;;;;;;;;5016502;28;20101;-60
2021/07/05 14:04:26;;;;;;;2.92;0.98;;;;;;;;;;5020675;28;20049;-59
2021/07/05 14:06:56;;;;;;;3.45;0.88;;;;;;;;;;5018840;28;20125;-59
2021/07/05 14:09:23;;;;;;;1.90;0.80;;;;;;;;;;5013161;28;20153;-59
2021/07/05 14:12:04;;;;;;;4.13;1.10;;;;;;;;;;5033322;28;20127;-59
2021/07/05 14:14:30;;;;;;;3.05;1.20;;;;;;;;;;5020360;28;20134;-59
2021/07/05 14:16:58;;;;;;;8.63;1.20;;;;;;;;;;5004306;28;20042;-59
2021/07/05 14:19:26;;;;;;;3.95;1.25;;;;;;;;;;5001075;28;20122;-59
2021/07/05 14:21:55;;;;;;;4.40;1.38;;;;;;;;;;5009235;28;20048;-59
2021/07/05 14:24:22;;;;;;;1.55;0.82;;;;;;;;;;5020818;28;20049;-59
2021/07/05 14:26:48;;;;;;;5.47;1.00;;;;;;;;;;5019092;28;20094;-59
2021/07/05 14:29:14;;;;;;;4.47;1.35;;;;;;;;;;5010443;28;20097;-59
2021/07/05 14:31:42;;;;;;;4.47;1.30;;;;;;;;;;5017361;28;20042;-59
2021/07/05 14:34:08;;;;;;;4.07;1.07;;;;;;;;;;5037520;28;20042;-59
2021/07/05 14:36:36;;;;;;;1.75;0.90;;;;;;;;;;5029180;28;20137;-59
2021/07/05 14:39:03;;;;;;;4.07;0.98;;;;;;;;;;5001509;28;20050;-59
2021/07/05 14:41:29;;;;;;;3.17;1.20;;;;;;;;;;4998781;28;20074;-59
2021/07/05 14:43:56;;;;;;;3.72;1.27;;;;;;;;;;5021606;28;20038;-59
2021/07/05 14:46:28;;;;;;;1.73;1.08;;;;;;;;;;5021176;28;20053;-59
2021/07/05 14:48:54;;;;;;;3.92;1.15;;;;;;;;;;4996920;28;20057;-60
2021/07/05 14:51:21;;;;;;;3.20;1.20;;;;;;;;;;4990828;28;20038;-59